Time;durP1;ratioP1;P1;durP2;ratioP2;P2;SDS_P1;SDS_P2;PMS_P1;PMS_P2;Temp;Humidity;BMP_temperature;BMP_pressure;BME280_temperature;BME280_humidity;BME280_pressure;Samples;Min_cycle;Max_cycle;Signal;HPM_P1;HPM_P2
2023/09/23 00:01:46;;;;;;;22.70;4.50;;;24.90;99.90;;;;;;5030440;28;20413;-73
2023/09/23 00:04:12;;;;;;;22.20;4.70;;;25.00;99.90;;;;;;5031660;28;20033;-74
2023/09/23 00:06:38;;;;;;;24.58;4.72;;;25.00;99.90;;;;;;5031798;28;20036;-73
2023/09/23 00:09:04;;;;;;;25.52;5.00;;;24.90;99.90;;;;;;5031796;28;20074;-74
2023/09/23 00:11:31;;;;;;;26.25;5.68;;;24.90;99.90;;;;;;5031391;28;20060;-73
2023/09/23 00:13:57;;;;;;;18.55;4.80;;;25.00;99.90;;;;;;5031516;28;20045;-74
2023/09/23 00:16:23;;;;;;;21.45;4.78;;;25.00;99.90;;;;;;5031418;28;20025;-74
2023/09/23 00:18:51;;;;;;;22.92;4.50;;;24.90;99.90;;;;;;5029854;28;20081;-74
2023/09/23 00:21:17;;;;;;;18.83;4.45;;;24.90;99.90;;;;;;5031459;28;20022;-74
2023/09/23 00:23:45;;;;;;;25.33;4.20;;;24.90;99.90;;;;;;5030792;28;20021;-74
2023/09/23 00:26:14;;;;;;;23.85;5.10;;;25.00;99.90;;;;;;5030614;28;20029;-73
2023/09/23 00:28:40;;;;;;;18.25;4.60;;;24.90;99.90;;;;;;5030506;28;20043;-74
2023/09/23 00:31:11;;;;;;;17.38;4.60;;;24.90;99.90;;;;;;5030178;28;20430;-74
2023/09/23 00:33:39;;;;;;;23.98;5.18;;;24.80;99.90;;;;;;5030397;28;20052;-74
2023/09/23 00:36:07;;;;;;;29.92;4.20;;;24.90;99.90;;;;;;5030307;28;20037;-72
2023/09/23 00:38:33;;;;;;;19.58;4.13;;;24.90;99.90;;;;;;5030473;28;20037;-73
2023/09/23 00:41:00;;;;;;;29.58;4.15;;;25.00;99.90;;;;;;5030434;28;20026;-73
2023/09/23 00:43:26;;;;;;;23.83;4.40;;;25.00;99.90;;;;;;5030340;28;20029;-73
2023/09/23 00:45:54;;;;;;;23.02;4.47;;;25.00;99.90;;;;;;5028578;28;20503;-74
2023/09/23 00:48:22;;;;;;;15.65;3.95;;;25.00;99.90;;;;;;5028693;28;20038;-73
2023/09/23 00:50:50;;;;;;;20.60;4.57;;;25.10;99.90;;;;;;5030734;28;20116;-73
2023/09/23 00:53:18;;;;;;;29.17;4.80;;;25.20;99.90;;;;;;5030710;28;20022;-73
2023/09/23 00:55:55;;;;;;;18.45;3.83;;;25.20;99.90;;;;;;5030251;28;20060;-73
2023/09/23 00:58:22;;;;;;;27.13;4.28;;;25.20;99.90;;;;;;5030130;28;20121;-72
2023/09/23 01:00:51;;;;;;;27.02;4.68;;;25.20;99.90;;;;;;5030053;28;20054;-73
2023/09/23 01:03:19;;;;;;;23.52;3.75;;;25.20;99.90;;;;;;5028739;28;20022;-73
2023/09/23 01:06:15;;;;;;;24.58;4.40;;;25.20;99.90;;;;;;5030255;28;20048;-73
2023/09/23 01:08:43;;;;;;;22.38;4.15;;;25.30;99.90;;;;;;5030267;28;20098;-73
2023/09/23 01:11:09;;;;;;;19.50;4.07;;;25.30;99.90;;;;;;5030060;28;20098;-73
2023/09/23 01:13:37;;;;;;;21.42;4.25;;;25.30;99.90;;;;;;5029952;28;20067;-75
2023/09/23 01:16:12;;;;;;;26.92;3.95;;;25.30;99.90;;;;;;5030047;28;20066;-73
2023/09/23 01:18:39;;;;;;;25.05;4.55;;;25.30;99.90;;;;;;5028324;28;20025;-72
2023/09/23 01:21:08;;;;;;;20.33;3.92;;;25.30;99.90;;;;;;5028274;28;20045;-73
2023/09/23 01:23:38;;;;;;;21.42;4.82;;;25.30;99.90;;;;;;5030186;28;20022;-73
2023/09/23 01:26:04;;;;;;;31.17;4.20;;;25.20;99.90;;;;;;5029905;28;20029;-74
2023/09/23 01:28:32;;;;;;;23.42;4.40;;;25.20;99.90;;;;;;5029802;28;20033;-73
2023/09/23 01:31:00;;;;;;;20.88;5.00;;;25.10;99.90;;;;;;5029734;28;20051;-73
2023/09/23 01:33:28;;;;;;;21.00;3.80;;;25.20;99.90;;;;;;5029885;28;20076;-73
2023/09/23 01:36:02;;;;;;;27.48;4.35;;;25.10;99.90;;;;;;5029781;28;20425;-72
2023/09/23 01:38:32;;;;;;;24.02;4.80;;;25.10;99.90;;;;;;5030057;28;20041;-73
2023/09/23 01:41:04;;;;;;;20.15;4.07;;;25.10;99.90;;;;;;5029744;28;20024;-73
2023/09/23 01:43:30;;;;;;;34.80;4.70;;;25.00;99.90;;;;;;5031110;28;20076;-73
2023/09/23 01:46:02;;;;;;;22.98;3.97;;;25.00;99.90;;;;;;5033332;28;20109;-73
2023/09/23 01:48:29;;;;;;;28.40;4.43;;;25.00;99.90;;;;;;5033658;28;20047;-73
2023/09/23 01:50:58;;;;;;;24.50;4.38;;;25.10;99.90;;;;;;5033748;28;20462;-72
2023/09/23 01:53:27;;;;;;;24.08;3.97;;;25.10;99.90;;;;;;5033494;28;20087;-73
2023/09/23 01:55:54;;;;;;;23.23;3.67;;;25.10;99.90;;;;;;5033469;28;20135;-74
2023/09/23 01:58:22;;;;;;;;;;;25.30;99.90;;;;;;5033856;28;20033;-73
2023/09/23 02:00:50;;;;;;;22.70;4.43;;;25.40;99.90;;;;;;5033042;28;20238;-73
2023/09/23 02:03:16;;;;;;;24.35;4.22;;;25.40;99.90;;;;;;5033316;28;20022;-74
2023/09/23 02:05:43;;;;;;;27.25;4.45;;;25.40;99.90;;;;;;5033229;28;20022;-73
2023/09/23 02:08:09;;;;;;;25.17;4.05;;;25.40;99.90;;;;;;5033286;28;20657;-73
2023/09/23 02:10:35;;;;;;;26.88;4.70;;;25.40;99.90;;;;;;5033122;28;20429;-73
2023/09/23 02:13:02;;;;;;;21.67;4.25;;;25.50;99.90;;;;;;5033096;28;20390;-74
2023/09/23 02:15:28;;;;;;;23.10;3.97;;;25.50;99.90;;;;;;5031504;28;20121;-73
2023/09/23 02:17:54;;;;;;;23.35;4.13;;;25.50;99.90;;;;;;5031251;28;20551;-73
2023/09/23 02:20:21;;;;;;;29.80;4.30;;;25.50;99.90;;;;;;5033011;28;20060;-72
2023/09/23 02:22:54;;;;;;;25.35;4.53;;;25.50;99.90;;;;;;5033080;28;20045;-74
2023/09/23 02:25:25;;;;;;;42.17;4.85;;;25.50;99.90;;;;;;5031535;28;20157;-72
2023/09/23 02:27:52;;;;;;;29.92;4.70;;;25.50;99.90;;;;;;5032997;28;20099;-74
2023/09/23 02:30:18;;;;;;;25.33;3.95;;;25.40;99.90;;;;;;5033021;28;20458;-73
2023/09/23 02:32:46;;;;;;;33.45;4.50;;;25.30;99.90;;;;;;5032574;28;20374;-74
2023/09/23 02:35:17;;;;;;;30.30;4.53;;;25.30;99.90;;;;;;5032664;28;20029;-73
2023/09/23 02:37:45;;;;;;;27.95;4.95;;;25.30;99.90;;;;;;5032561;28;20033;-73
2023/09/23 02:40:12;;;;;;;25.75;4.43;;;25.20;99.90;;;;;;5032453;28;20053;-73
2023/09/23 02:42:42;;;;;;;26.38;4.45;;;25.20;99.90;;;;;;5031065;28;20049;-74
2023/09/23 02:45:10;;;;;;;29.77;4.75;;;25.20;99.90;;;;;;5032491;28;20095;-73
2023/09/23 02:47:42;;;;;;;24.63;4.63;;;25.20;99.90;;;;;;5032290;28;20077;-74
2023/09/23 02:50:10;;;;;;;25.63;5.00;;;25.10;99.90;;;;;;5032554;28;20025;-74
2023/09/23 02:52:48;;;;;;;28.63;4.70;;;25.00;99.90;;;;;;5032694;28;20322;-73
2023/09/23 02:55:15;;;;;;;28.40;4.95;;;25.10;99.90;;;;;;5031570;28;20116;-73
2023/09/23 02:57:46;;;;;;;29.38;4.50;;;25.10;99.90;;;;;;5032732;28;20064;-73
2023/09/23 03:00:22;;;;;;;32.85;4.93;;;25.10;99.90;;;;;;5032396;28;20033;-74
2023/09/23 03:02:54;;;;;;;16.58;3.92;;;25.10;99.90;;;;;;5032422;28;20025;-74
2023/09/23 03:05:27;;;;;;;28.92;4.55;;;25.10;99.90;;;;;;5032420;28;20029;-74
2023/09/23 03:07:59;;;;;;;30.02;5.13;;;25.20;99.90;;;;;;5033228;28;20068;-73
2023/09/23 03:10:34;;;;;;;31.38;5.05;;;25.20;99.90;;;;;;5033651;28;20492;-74
2023/09/23 03:13:07;;;;;;;29.55;4.35;;;25.20;99.90;;;;;;5033614;28;20029;-73
2023/09/23 03:15:41;;;;;;;27.02;4.32;;;25.20;99.90;;;;;;5033611;28;20114;-73
2023/09/23 03:18:08;;;;;;;27.58;4.55;;;25.30;99.90;;;;;;5032933;28;20493;-73
2023/09/23 03:20:36;;;;;;;35.38;5.40;;;25.30;99.90;;;;;;5033391;28;20029;-73
2023/09/23 03:23:03;;;;;;;35.40;5.05;;;25.30;99.90;;;;;;5031811;28;20029;-73
2023/09/23 03:25:30;;;;;;;28.38;4.65;;;25.30;99.90;;;;;;5033837;28;20493;-73
2023/09/23 03:27:57;;;;;;;34.10;5.30;;;25.30;99.90;;;;;;5033704;28;20100;-74
2023/09/23 03:30:24;;;;;;;33.00;4.78;;;25.20;99.90;;;;;;5032396;28;20126;-73
2023/09/23 03:32:50;;;;;;;28.00;4.25;;;25.30;99.90;;;;;;5033570;28;20354;-73
2023/09/23 03:35:23;;;;;;;21.95;5.07;;;25.30;99.90;;;;;;5033979;28;20466;-73
2023/09/23 03:37:50;;;;;;;28.10;4.57;;;25.30;99.90;;;;;;5033530;28;20021;-73
2023/09/23 03:40:25;;;;;;;33.38;5.38;;;25.20;99.90;;;;;;5033287;28;20425;-73
2023/09/23 03:42:51;;;;;;;30.80;4.72;;;25.10;99.90;;;;;;5032128;28;20028;-73
2023/09/23 03:45:18;;;;;;;34.35;5.22;;;25.10;99.90;;;;;;5033416;28;20450;-73
2023/09/23 03:47:46;;;;;;;23.85;5.50;;;25.10;99.90;;;;;;5033149;28;20037;-75
2023/09/23 03:50:14;;;;;;;33.00;4.97;;;25.10;99.90;;;;;;5033323;28;20456;-75
2023/09/23 03:52:41;;;;;;;26.00;4.28;;;25.10;99.90;;;;;;5033291;28;20428;-73
2023/09/23 03:55:09;;;;;;;35.15;5.03;;;25.10;99.90;;;;;;5033664;28;20087;-74
2023/09/23 03:57:36;;;;;;;34.30;4.70;;;25.10;99.90;;;;;;5033169;28;20461;-74
2023/09/23 04:00:10;;;;;;;22.85;4.00;;;25.10;99.90;;;;;;5031812;28;20481;-73
2023/09/23 04:02:37;;;;;;;23.65;4.55;;;25.20;99.90;;;;;;5033194;28;20025;-74
2023/09/23 04:05:05;;;;;;;41.33;4.80;;;25.20;99.90;;;;;;5033059;28;20420;-73
2023/09/23 04:07:32;;;;;;;43.60;5.72;;;25.20;99.90;;;;;;5032441;28;20483;-73
2023/09/23 04:09:58;;;;;;;23.25;4.32;;;25.20;99.90;;;;;;5032836;28;20109;-73
2023/09/23 04:12:24;;;;;;;32.83;5.22;;;25.20;99.90;;;;;;5033102;28;20057;-73
2023/09/23 04:14:50;;;;;;;27.98;4.80;;;25.20;99.90;;;;;;5033040;28;20029;-73
2023/09/23 04:17:17;;;;;;;36.10;5.25;;;25.20;99.90;;;;;;5033073;28;20025;-73
2023/09/23 04:19:43;;;;;;;29.08;5.00;;;25.20;99.90;;;;;;5033458;28;20039;-74
2023/09/23 04:22:11;;;;;;;33.53;5.50;;;25.30;99.90;;;;;;5033508;28;20160;-74
2023/09/23 04:24:37;;;;;;;32.38;4.75;;;25.30;99.90;;;;;;5033938;28;20026;-75
2023/09/23 04:27:03;;;;;;;35.95;5.15;;;25.30;99.90;;;;;;5031675;28;20032;-73
2023/09/23 04:29:30;;;;;;;31.08;5.03;;;25.30;99.90;;;;;;5032131;28;20047;-73
2023/09/23 04:31:56;;;;;;;31.23;4.65;;;25.30;99.90;;;;;;5033286;28;20037;-75
2023/09/23 04:34:24;;;;;;;;;;;25.30;99.90;;;;;;5034292;28;20030;-74
2023/09/23 04:36:50;;;;;;;35.55;5.25;;;25.30;99.90;;;;;;5032806;28;19905;-74
2023/09/23 04:39:16;;;;;;;27.50;4.97;;;25.30;99.90;;;;;;5033136;28;20036;-74
2023/09/23 04:41:43;;;;;;;23.92;4.45;;;25.30;99.90;;;;;;5033239;28;20029;-74
2023/09/23 04:44:09;;;;;;;27.33;4.93;;;25.30;99.90;;;;;;5033627;28;20014;-74
2023/09/23 04:46:35;;;;;;;29.70;4.63;;;25.30;99.90;;;;;;5033390;28;20058;-74
2023/09/23 04:49:02;;;;;;;26.52;4.82;;;25.30;99.90;;;;;;5033466;28;20108;-74
2023/09/23 04:51:29;;;;;;;30.90;5.03;;;25.30;99.90;;;;;;5033505;28;20525;-74
2023/09/23 04:53:56;;;;;;;32.67;5.05;;;25.20;99.90;;;;;;5032943;28;20025;-74
2023/09/23 04:56:22;;;;;;;34.20;4.88;;;25.30;99.90;;;;;;5033052;28;20033;-74
2023/09/23 04:58:48;;;;;;;36.63;5.25;;;25.20;99.90;;;;;;5032857;28;20498;-74
2023/09/23 05:01:15;;;;;;;32.50;5.05;;;25.20;99.90;;;;;;5033166;28;20370;-74
2023/09/23 05:03:42;;;;;;;33.97;5.50;;;25.10;99.90;;;;;;5032997;28;20025;-74
2023/09/23 05:06:08;;;;;;;;;;;25.10;99.90;;;;;;5031837;28;20029;-74
2023/09/23 05:08:35;;;;;;;35.17;5.03;;;25.10;99.90;;;;;;5031415;28;19996;-74
2023/09/23 05:11:02;;;;;;;;;;;25.20;99.90;;;;;;5033098;28;20029;-73
2023/09/23 05:13:30;;;;;;;31.23;5.10;;;25.20;99.90;;;;;;5032814;28;19905;-73
2023/09/23 05:15:56;;;;;;;37.80;4.93;;;25.20;99.90;;;;;;5031507;28;20033;-74
2023/09/23 05:18:23;;;;;;;23.40;4.65;;;25.20;99.90;;;;;;5033757;28;20033;-74
2023/09/23 05:20:49;;;;;;;31.50;5.05;;;25.20;99.90;;;;;;5037004;28;20032;-74
2023/09/23 05:23:16;;;;;;;31.73;5.25;;;25.20;99.90;;;;;;5036725;28;20028;-74
2023/09/23 05:25:43;;;;;;;28.77;5.28;;;25.20;99.90;;;;;;5036657;28;20030;-74
2023/09/23 05:28:10;;;;;;;29.70;5.53;;;25.20;99.90;;;;;;5034993;28;20022;-74
2023/09/23 05:30:36;;;;;;;;;;;25.10;99.90;;;;;;5036943;28;20041;-74
2023/09/23 05:33:02;;;;;;;31.08;5.00;;;25.20;99.90;;;;;;5036234;28;19905;-74
2023/09/23 05:35:28;;;;;;;;;;;25.20;99.90;;;;;;5036537;28;20026;-74
2023/09/23 05:37:54;;;;;;;28.55;5.38;;;25.30;99.90;;;;;;5036067;28;19905;-74
2023/09/23 05:40:23;;;;;;;30.10;5.22;;;25.40;99.90;;;;;;5035825;28;20040;-74
2023/09/23 05:42:50;;;;;;;33.55;5.60;;;25.50;99.90;;;;;;5035492;28;20025;-73
2023/09/23 05:45:26;;;;;;;43.05;5.60;;;25.70;99.90;;;;;;5035375;28;20432;-73
2023/09/23 05:47:52;;;;;;;35.65;6.25;;;25.90;99.90;;;;;;5035133;28;20107;-75
2023/09/23 05:50:20;;;;;;;;;;;26.00;99.90;;;;;;5035733;28;20152;-74
2023/09/23 05:52:53;;;;;;;40.10;6.10;;;25.80;99.90;;;;;;5034808;28;19909;-74
2023/09/23 05:55:20;;;;;;;28.67;5.47;;;25.60;99.90;;;;;;5032702;28;20022;-74
2023/09/23 05:57:46;;;;;;;35.05;5.75;;;25.50;99.90;;;;;;5033492;28;20034;-75
2023/09/23 06:00:15;;;;;;;29.52;6.25;;;25.40;99.90;;;;;;5034530;28;20029;-74
2023/09/23 06:02:41;;;;;;;35.20;6.18;;;25.40;99.90;;;;;;5034786;28;20091;-74
2023/09/23 06:05:08;;;;;;;32.97;6.03;;;25.30;99.90;;;;;;5034626;28;20517;-74
2023/09/23 06:07:34;;;;;;;37.33;5.72;;;25.30;99.90;;;;;;5034490;28;20017;-74
2023/09/23 06:10:00;;;;;;;24.50;5.30;;;25.40;99.90;;;;;;5034510;28;20045;-71
2023/09/23 06:12:30;;;;;;;34.80;5.65;;;25.30;99.90;;;;;;5034471;28;20057;-73
2023/09/23 06:15:01;;;;;;;32.13;5.22;;;25.40;99.90;;;;;;5034738;28;20028;-73
2023/09/23 06:17:28;;;;;;;33.47;5.78;;;25.70;99.90;;;;;;5033994;28;20060;-73
2023/09/23 06:19:56;;;;;;;37.45;5.80;;;25.80;99.90;;;;;;5031178;28;20034;-74
2023/09/23 06:22:22;;;;;;;30.50;6.28;;;25.70;99.90;;;;;;5033447;28;20100;-72
2023/09/23 06:24:52;;;;;;;41.95;6.45;;;25.80;99.90;;;;;;5033847;28;20026;-73
2023/09/23 06:27:19;;;;;;;40.88;5.85;;;26.20;99.90;;;;;;5034014;28;20071;-73
2023/09/23 06:29:46;;;;;;;23.67;5.43;;;26.40;99.90;;;;;;5033931;28;20025;-73
2023/09/23 06:32:13;;;;;;;35.28;5.35;;;26.80;99.90;;;;;;5033568;28;20474;-74
2023/09/23 06:34:39;;;;;;;34.13;5.45;;;26.60;99.90;;;;;;5034674;28;20461;-74
2023/09/23 06:37:06;;;;;;;31.50;5.47;;;26.70;99.90;;;;;;5034352;28;20056;-73
2023/09/23 06:39:31;;;;;;;;;;;26.70;99.90;;;;;;5034920;28;20044;-73
2023/09/23 06:41:58;;;;;;;;;;;27.10;99.90;;;;;;5034548;28;19917;-72
2023/09/23 06:44:24;;;;;;;32.88;6.05;;;26.90;99.90;;;;;;5034641;28;19923;-74
2023/09/23 06:46:51;;;;;;;28.85;5.45;;;27.30;99.90;;;;;;5034039;28;20405;-73
2023/09/23 06:49:18;;;;;;;36.22;5.53;;;27.70;99.90;;;;;;5032791;28;20107;-73
2023/09/23 06:51:44;;;;;;;30.13;5.72;;;28.00;99.90;;;;;;5034608;28;20049;-73
2023/09/23 06:54:10;;;;;;;40.70;6.38;;;28.10;99.90;;;;;;5033938;28;20156;-73
2023/09/23 06:56:37;;;;;;;35.38;5.53;;;27.70;99.90;;;;;;5034480;28;20029;-73
2023/09/23 06:59:03;;;;;;;33.95;5.68;;;28.20;99.90;;;;;;5033992;28;20029;-74
2023/09/23 07:01:34;;;;;;;;;;;29.00;99.90;;;;;;5033784;28;20468;-74
2023/09/23 07:04:02;;;;;;;24.50;5.43;;;28.80;99.90;;;;;;5065407;28;19905;-73
2023/09/23 07:06:28;;;;;;;37.90;6.35;;;28.60;99.90;;;;;;5033446;28;20033;-74
2023/09/23 07:08:54;;;;;;;29.55;5.22;;;29.30;99.90;;;;;;5033722;28;20410;-73
2023/09/23 07:11:20;;;;;;;36.58;5.97;;;29.50;99.90;;;;;;5033814;28;20124;-74
2023/09/23 07:13:46;;;;;;;31.45;5.70;;;29.80;99.90;;;;;;5033781;28;20385;-73
2023/09/23 07:16:14;;;;;;;;;;;30.00;99.90;;;;;;5032617;28;20049;-74
2023/09/23 07:18:41;;;;;;;32.97;5.80;;;30.30;99.90;;;;;;5034475;28;19909;-75
2023/09/23 07:21:08;;;;;;;33.05;6.05;;;30.10;99.90;;;;;;5033632;28;20025;-72
2023/09/23 07:23:34;;;;;;;31.73;5.88;;;28.90;99.90;;;;;;5033594;28;20018;-74
2023/09/23 07:26:01;;;;;;;26.25;5.78;;;28.40;99.90;;;;;;5033312;28;20021;-73
2023/09/23 07:28:27;;;;;;;;;;;28.80;99.90;;;;;;5033616;28;20473;-73
2023/09/23 07:30:53;;;;;;;37.97;5.47;;;29.00;99.90;;;;;;5033219;28;19905;-75
2023/09/23 07:33:20;;;;;;;43.20;5.85;;;29.00;99.90;;;;;;5033366;28;20033;-73
2023/09/23 07:35:46;;;;;;;30.65;5.63;;;29.00;99.90;;;;;;5033436;28;20100;-74
2023/09/23 07:38:12;;;;;;;30.48;5.78;;;28.90;99.90;;;;;;5031610;28;20052;-73
2023/09/23 07:40:40;;;;;;;36.88;6.05;;;28.50;99.90;;;;;;5032795;28;20412;-74
2023/09/23 07:43:07;;;;;;;40.67;6.43;;;28.00;99.90;;;;;;5033019;28;20021;-74
2023/09/23 07:45:33;;;;;;;41.10;6.40;;;28.10;99.90;;;;;;5032930;28;20049;-73
2023/09/23 07:48:00;;;;;;;34.30;5.72;;;27.90;99.90;;;;;;5032695;28;20328;-73
2023/09/23 07:50:26;;;;;;;42.20;6.80;;;28.20;99.90;;;;;;5031075;28;20121;-74
2023/09/23 07:52:52;;;;;;;29.83;5.93;;;28.50;99.90;;;;;;5030975;28;20041;-73
2023/09/23 07:55:18;;;;;;;34.25;6.35;;;28.50;99.90;;;;;;5030885;28;20103;-74
2023/09/23 07:57:44;;;;;;;28.45;6.18;;;28.60;99.90;;;;;;5031333;28;20021;-74
2023/09/23 08:00:11;;;;;;;40.50;6.57;;;28.60;99.90;;;;;;5030703;28;20037;-74
2023/09/23 08:02:37;;;;;;;42.83;7.28;;;28.40;99.90;;;;;;5031753;28;20099;-73
2023/09/23 08:05:06;;;;;;;;;;;28.20;99.90;;;;;;5033027;28;20021;-76
2023/09/23 08:07:32;;;;;;;42.22;6.80;;;28.00;99.90;;;;;;5031067;28;19913;-73
2023/09/23 08:09:59;;;;;;;29.70;5.78;;;27.90;99.90;;;;;;5031780;28;20497;-75
2023/09/23 08:12:25;;;;;;;;;;;27.80;99.90;;;;;;5032207;28;20052;-73
2023/09/23 08:14:51;;;;;;;37.05;7.20;;;27.70;99.90;;;;;;5031889;28;19995;-73
2023/09/23 08:17:18;;;;;;;51.15;7.93;;;27.60;99.90;;;;;;5032084;28;20041;-73
2023/09/23 08:19:44;;;;;;;38.17;8.50;;;27.60;99.90;;;;;;5032472;28;20033;-73
2023/09/23 08:22:11;;;;;;;35.33;7.22;;;27.70;99.90;;;;;;5032116;28;20096;-73
2023/09/23 08:24:37;;;;;;;35.75;6.47;;;27.70;99.90;;;;;;5032487;28;20320;-73
2023/09/23 08:27:04;;;;;;;42.15;7.45;;;27.50;99.90;;;;;;5032164;28;20105;-74
2023/09/23 08:29:30;;;;;;;43.22;8.35;;;27.70;99.90;;;;;;5032239;28;20144;-74
2023/09/23 08:31:56;;;;;;;37.53;7.38;;;27.70;99.90;;;;;;5032416;28;20038;-73
2023/09/23 08:34:24;;;;;;;43.22;7.55;;;27.70;99.90;;;;;;5032346;28;20036;-74
2023/09/23 08:36:52;;;;;;;36.03;7.30;;;27.70;99.90;;;;;;5032530;28;20096;-74
2023/09/23 08:39:18;;;;;;;36.65;7.60;;;27.90;99.90;;;;;;5032000;28;20485;-73
2023/09/23 08:41:54;;;;;;;38.70;6.57;;;27.90;99.90;;;;;;5032151;28;20112;-73
2023/09/23 08:44:22;;;;;;;;;;;27.70;99.90;;;;;;5032604;28;20032;-73
2023/09/23 08:46:52;;;;;;;35.25;7.05;;;27.90;99.90;;;;;;5030186;28;20373;-73
2023/09/23 08:49:22;;;;;;;37.95;7.13;;;28.00;99.90;;;;;;5030523;28;20392;-73
2023/09/23 08:51:54;;;;;;;41.08;7.45;;;28.20;99.90;;;;;;5030367;28;20473;-73
2023/09/23 08:54:22;;;;;;;35.55;6.13;;;28.30;99.90;;;;;;5032066;28;20113;-73
2023/09/23 08:56:49;;;;;;;35.13;6.57;;;28.40;99.90;;;;;;5032308;28;20020;-73
2023/09/23 08:59:15;;;;;;;35.35;6.85;;;28.80;99.90;;;;;;5032591;28;20037;-73
2023/09/23 09:01:43;;;;;;;35.38;7.05;;;28.90;99.90;;;;;;5030534;28;20022;-74
2023/09/23 09:04:11;;;;;;;41.45;7.57;;;28.90;99.90;;;;;;5032207;28;20453;-74
2023/09/23 09:06:47;;;;;;;40.05;6.32;;;29.00;99.90;;;;;;5031681;28;20049;-74
2023/09/23 09:09:13;;;;;;;35.83;7.03;;;28.90;99.90;;;;;;5030445;28;20030;-74
2023/09/23 09:11:39;;;;;;;40.33;7.40;;;29.20;99.90;;;;;;5031853;28;20025;-75
2023/09/23 09:14:05;;;;;;;40.83;7.10;;;29.40;99.90;;;;;;5031665;28;20105;-72
2023/09/23 09:16:31;;;;;;;35.28;6.78;;;29.60;99.90;;;;;;5031828;28;20040;-73
2023/09/23 09:18:58;;;;;;;38.47;7.05;;;30.10;99.90;;;;;;5030238;28;20041;-73
2023/09/23 09:21:26;;;;;;;41.47;7.95;;;30.10;99.90;;;;;;5031645;28;20183;-73
2023/09/23 09:23:53;;;;;;;32.80;7.07;;;29.60;99.90;;;;;;5031701;28;20068;-72
2023/09/23 09:26:21;;;;;;;37.13;7.03;;;29.50;99.90;;;;;;5030324;28;20116;-73
2023/09/23 09:28:47;;;;;;;36.85;7.43;;;29.90;99.90;;;;;;5031474;28;20025;-73
2023/09/23 09:31:17;;;;;;;42.85;8.00;;;30.00;99.90;;;;;;5031286;28;20087;-73
2023/09/23 09:33:50;;;;;;;39.63;7.50;;;29.60;99.90;;;;;;5029740;28;20040;-76
2023/09/23 09:36:23;;;;;;;38.80;7.07;;;29.20;99.90;;;;;;5031941;28;20029;-76
2023/09/23 09:38:56;;;;;;;42.85;7.95;;;29.10;99.90;;;;;;5031729;28;20049;-76
2023/09/23 09:41:35;;;;;;;40.42;7.10;;;28.80;99.90;;;;;;5031441;28;20033;-75
2023/09/23 09:44:02;;;;;;;41.97;7.22;;;28.80;99.90;;;;;;5032008;28;20068;-75
2023/09/23 09:46:31;;;;;;;38.80;7.93;;;28.80;99.90;;;;;;5031672;28;20065;-75
2023/09/23 09:49:00;;;;;;;32.33;8.07;;;28.60;99.90;;;;;;5031488;28;20103;-75
2023/09/23 09:51:27;;;;;;;28.90;6.47;;;28.30;99.90;;;;;;5031634;28;20478;-75
2023/09/23 09:53:54;;;;;;;36.42;7.07;;;28.30;99.90;;;;;;5031784;28;20029;-75
2023/09/23 09:56:20;;;;;;;47.58;7.60;;;28.10;99.90;;;;;;5031392;28;20025;-74
2023/09/23 09:58:49;;;;;;;42.15;7.30;;;28.20;99.90;;;;;;5031377;28;20128;-76
2023/09/23 10:01:17;;;;;;;36.85;7.07;;;28.10;99.90;;;;;;5031212;28;20021;-75
2023/09/23 10:03:48;;;;;;;45.17;7.80;;;28.20;99.90;;;;;;5030971;28;20482;-74
2023/09/23 10:06:19;;;;;;;43.03;7.68;;;28.30;99.90;;;;;;5033699;28;20083;-74
2023/09/23 10:08:48;;;;;;;40.58;7.53;;;28.20;99.90;;;;;;5034837;28;20112;-74
2023/09/23 10:11:16;;;;;;;44.17;7.55;;;28.20;99.90;;;;;;5035050;28;20127;-75
2023/09/23 10:13:43;;;;;;;37.40;6.95;;;28.00;99.90;;;;;;5034751;28;20029;-74
2023/09/23 10:16:17;;;;;;;38.60;7.35;;;28.10;99.90;;;;;;5033237;28;20026;-75
2023/09/23 10:18:44;;;;;;;39.75;7.15;;;27.90;99.90;;;;;;5034118;28;20026;-74
2023/09/23 10:21:30;;;;;;;47.13;9.35;;;28.00;99.90;;;;;;5034741;28;20360;-74
2023/09/23 10:23:57;;;;;;;31.17;6.70;;;28.10;99.90;;;;;;5034408;28;20029;-74
2023/09/23 10:26:28;;;;;;;46.38;8.20;;;28.40;99.90;;;;;;5034996;28;20179;-74
2023/09/23 10:29:05;;;;;;;35.13;7.22;;;28.60;99.90;;;;;;5034809;28;20108;-74
2023/09/23 10:31:35;;;;;;;38.72;7.15;;;28.80;99.90;;;;;;5034584;28;20373;-75
2023/09/23 10:34:09;;;;;;;37.95;7.10;;;29.20;99.90;;;;;;5034356;28;20056;-73
2023/09/23 10:36:36;;;;;;;33.35;7.43;;;29.40;99.90;;;;;;5034368;28;20028;-74
2023/09/23 10:39:15;;;;;;;38.17;7.32;;;29.30;99.90;;;;;;5033848;28;20041;-74
2023/09/23 10:41:41;;;;;;;36.60;8.75;;;29.30;99.90;;;;;;5032441;28;20033;-74
2023/09/23 10:44:08;;;;;;;;;;;29.40;99.90;;;;;;5034779;28;20025;-74
2023/09/23 10:46:34;;;;;;;37.33;7.32;;;29.50;99.90;;;;;;5033613;28;19919;-74
2023/09/23 10:49:01;;;;;;;;;;;29.50;99.90;;;;;;5034149;28;20493;-75
2023/09/23 10:51:29;;;;;;;38.65;7.05;;;29.70;99.90;;;;;;5033905;28;20005;-73
2023/09/23 10:53:58;;;;;;;31.27;7.07;;;29.80;99.90;;;;;;5033730;28;20030;-74
2023/09/23 10:56:26;;;;;;;36.42;6.80;;;29.90;99.90;;;;;;5033484;28;20053;-74
2023/09/23 10:58:53;;;;;;;42.67;6.97;;;30.00;99.90;;;;;;5033554;28;20030;-74
2023/09/23 11:01:20;;;;;;;;;;;29.90;99.90;;;;;;5033882;28;20037;-74
2023/09/23 11:03:46;;;;;;;37.38;6.55;;;29.90;99.90;;;;;;5033447;28;19909;-73
2023/09/23 11:06:16;;;;;;;46.00;7.45;;;29.90;99.90;;;;;;5033762;28;20033;-73
2023/09/23 11:08:42;;;;;;;39.42;7.40;;;30.00;99.90;;;;;;5032699;28;20474;-74
2023/09/23 11:11:11;;;;;;;34.72;7.95;;;30.20;99.90;;;;;;5033702;28;20041;-73
2023/09/23 11:13:37;;;;;;;32.63;6.70;;;30.40;99.90;;;;;;5033467;28;20018;-73
2023/09/23 11:16:10;;;;;;;;;;;30.10;99.90;;;;;;5033163;28;20029;-74
2023/09/23 11:18:37;;;;;;;38.50;7.10;;;29.60;99.90;;;;;;5033865;28;19912;-74
2023/09/23 11:21:03;;;;;;;35.70;6.90;;;29.20;99.90;;;;;;5032652;28;20029;-74
2023/09/23 11:23:29;;;;;;;;;;;29.10;99.90;;;;;;5034353;28;20029;-74
2023/09/23 11:25:56;;;;;;;37.55;7.95;;;29.40;99.90;;;;;;5033986;28;19917;-74
2023/09/23 11:28:27;;;;;;;36.08;7.47;;;29.60;99.90;;;;;;5032988;28;20032;-74
2023/09/23 11:30:55;;;;;;;38.35;7.43;;;29.50;99.90;;;;;;5034097;28;20108;-74
2023/09/23 11:33:21;;;;;;;35.78;7.65;;;29.70;99.90;;;;;;5033902;28;20096;-74
2023/09/23 11:35:48;;;;;;;40.30;6.93;;;29.60;99.90;;;;;;5034263;28;20033;-75
2023/09/23 11:38:14;;;;;;;39.30;8.27;;;29.70;99.90;;;;;;5034073;28;20071;-74
2023/09/23 11:40:42;;;;;;;43.30;7.75;;;29.60;99.90;;;;;;5032523;28;20053;-74
2023/09/23 11:43:09;;;;;;;37.05;7.53;;;29.50;99.90;;;;;;5034171;28;20410;-74
2023/09/23 11:45:35;;;;;;;45.20;7.95;;;29.50;99.90;;;;;;5034485;28;20099;-74
2023/09/23 11:48:03;;;;;;;40.15;7.25;;;29.50;99.90;;;;;;5033438;28;20054;-74
2023/09/23 11:50:30;;;;;;;37.85;7.57;;;29.70;99.90;;;;;;5033473;28;20481;-74
2023/09/23 11:52:56;;;;;;;41.33;7.07;;;29.70;99.90;;;;;;5034089;28;20057;-74
2023/09/23 11:55:29;;;;;;;;;;;30.10;99.90;;;;;;5032793;28;20025;-73
2023/09/23 11:57:56;;;;;;;37.80;7.18;;;30.40;99.90;;;;;;5032333;28;19905;-74
2023/09/23 12:00:22;;;;;;;43.65;7.63;;;30.60;99.90;;;;;;5032085;28;20132;-74
2023/09/23 12:02:48;;;;;;;43.00;7.28;;;30.70;99.90;;;;;;5033383;28;20022;-74
2023/09/23 12:05:17;;;;;;;;;;;30.70;99.90;;;;;;5033928;28;20060;-74
2023/09/23 12:07:44;;;;;;;80.53;8.80;;;30.30;99.90;;;;;;5033819;28;19905;-74
2023/09/23 12:10:13;;;;;;;66.72;9.35;;;30.50;99.90;;;;;;5033526;28;20018;-74
2023/09/23 12:12:40;;;;;;;61.40;8.55;;;30.60;99.90;;;;;;5031983;28;20029;-73
2023/09/23 12:15:08;;;;;;;52.08;7.43;;;30.80;99.90;;;;;;5031773;28;20484;-74
2023/09/23 12:17:36;;;;;;;43.88;7.63;;;30.60;99.90;;;;;;5032076;28;20021;-74
2023/09/23 12:20:04;;;;;;;41.22;8.00;;;30.60;99.90;;;;;;5033144;28;20037;-74
2023/09/23 12:22:30;;;;;;;40.90;6.78;;;30.60;99.90;;;;;;5033362;28;20075;-73
2023/09/23 12:24:56;;;;;;;33.10;7.13;;;30.70;99.90;;;;;;5033783;28;20481;-74
2023/09/23 12:27:22;;;;;;;35.60;7.20;;;30.60;99.90;;;;;;5033365;28;20527;-74
2023/09/23 12:29:48;;;;;;;;;;;30.80;99.90;;;;;;5033760;28;20425;-74
2023/09/23 12:32:15;;;;;;;55.17;7.13;;;30.80;99.90;;;;;;5033753;28;19905;-74
2023/09/23 12:34:41;;;;;;;51.47;7.90;;;30.50;99.90;;;;;;5033612;28;20488;-74
2023/09/23 12:37:08;;;;;;;39.28;7.32;;;30.50;99.90;;;;;;5033439;28;20486;-73
2023/09/23 12:39:34;;;;;;;35.03;7.45;;;30.50;99.90;;;;;;5033308;28;20124;-74
2023/09/23 12:42:00;;;;;;;43.15;7.45;;;30.40;99.90;;;;;;5033705;28;20037;-74
2023/09/23 12:44:27;;;;;;;;;;;30.40;99.90;;;;;;5034131;28;20026;-74
2023/09/23 12:46:53;;;;;;;43.83;6.97;;;30.50;99.90;;;;;;5031563;28;20416;-74